Have a Safe July 4th! 

Flight Track Log - Related Links

Times and Time Zones

All times are in EDT time to prevent confusion due to time zone crossing. See the N8350R flight status page for this flight to view local times or setup timezone preferences in your user account.

Time Position Orientation Groundspeed Altitude Reporting Facility
EDT Latitude Longitude Course Direction KTS MPH feet Rate Location/Type
Sun 11:46:46 AM 41.5000 -74.1500 246° West 82 94 1,800  Level New York TRACON
Sun 11:51:40 AM 41.4667 -74.2500 236° Southwest 78 90 4,400 508 Climbing New York TRACON
Sun 11:52:40 AM 41.4500 -74.2833 270° West 80 92 4,800 286 Climbing New York TRACON
Sun 11:53:46 AM 41.4500 -74.3167 236° Southwest 90 104 5,000 100 Climbing New York TRACON
Sun 11:54:40 AM 41.4333 -74.3500 217° Southwest 105 121 5,000  Level New York TRACON
Sun 11:55:40 AM 41.4167 -74.3667 201° Southwest 101 116 5,000  Level New York TRACON
Sun 11:56:40 AM 41.3833 -74.3833 180° South 106 122 5,000  Level New York TRACON
Sun 11:57:46 AM 41.3667 -74.3833 180° South 99 114 5,000 -95 Level New York TRACON
Sun 11:58:46 AM 41.3333 -74.3833 180° South 110 127 4,800 -300 Descending New York TRACON
Sun 11:59:46 AM 41.3000 -74.3833 143° Southeast 105 121 4,400 -421 Descending New York TRACON
Sun 12:00:40 PM 41.2833 -74.3667 159° South 106 122 4,000 -150 Descending New York TRACON
Sun 12:01:46 PM 41.2500 -74.3500 159° South 108 124 4,100  Climbing New York TRACON
Sun 12:02:46 PM 41.2167 -74.3333 180° South 108 124 4,000  Descending New York TRACON
Sun 12:03:46 PM 41.2000 -74.3333 159° South 104 120 4,100 -100 Climbing New York TRACON
Sun 12:04:46 PM 41.1667 -74.3167 159° South 102 117 3,800 -400 Descending New York TRACON
Sun 12:05:46 PM 41.1333 -74.3000 180° South 99 114 3,300 -350 Descending New York TRACON
Sun 12:06:46 PM 41.1167 -74.3000 124° Southeast 101 116 3,100 -105 Descending New York TRACON
Sun 12:07:40 PM 41.1000 -74.2667 159° South 101 116 3,100 -53 Level New York TRACON
Sun 12:08:40 PM 41.0667 -74.2500 143° Southeast 105 121 3,000 -95 Descending New York TRACON
Sun 12:09:46 PM 41.0500 -74.2333 143° Southeast 102 117 2,900 -250 Descending New York TRACON
Sun 12:10:40 PM 41.0167 -74.2000 180° South 105 121 2,500 -400 Descending New York TRACON
Sun 12:11:46 PM 41.0000 -74.2000 180° South 102 117 2,100 -200 Descending New York TRACON
Sun 12:12:40 PM 40.9833 -74.2000 217° Southwest 98 113 2,100  Level New York TRACON
Sun 12:13:40 PM 40.9500 -74.2333 217° Southwest 102 117 2,100 -350 Level New York TRACON
Sun 12:14:40 PM 40.9333 -74.2500 201° Southwest 101 116 1,400 -600 Descending New York TRACON
Sun 12:15:40 PM 40.9000 -74.2667 204° Southwest 104 120 900 -500 Descending New York TRACON
Sun 12:23:32 PM 40.6978 -74.3862 28° Northeast  Level Estimated
Sun 12:24:32 PM 40.8667 -74.2667 308° West  Level FlightAware Approximate
Sun 12:25:32 PM 40.8838 -74.2962 308° West  Level Estimated

Login

Don't have an account? Register now (free) for customized features, flight alerts, and more!